Time;durP1;ratioP1;P1;durP2;ratioP2;P2;SDS_P1;SDS_P2;PMS_P1;PMS_P2;Temp;Humidity;BMP_temperature;BMP_pressure;BME280_temperature;BME280_humidity;BME280_pressure;Samples;Min_cycle;Max_cycle;Signal;HPM_P1;HPM_P2
2023/08/10 00:00:42;;;;;;;;;;;19.40;95.70;;;19.58;58.45;99064.31;4983235;28;124324;-84
2023/08/10 00:03:09;;;;;;;;;;;19.40;95.70;;;19.57;58.46;99067.50;4978824;28;114525;-84
2023/08/10 00:05:37;;;;;;;;;;;19.40;95.60;;;19.54;58.19;99062.63;4986091;28;113826;-84
2023/08/10 00:08:08;;;;;;;;;;;19.30;95.50;;;19.53;58.13;99066.59;4986212;28;124328;-84
2023/08/10 00:10:34;;;;;;;;;;;19.30;95.40;;;19.50;57.88;99067.34;4973351;28;123728;-83
2023/08/10 00:13:01;;;;;;;;;;;19.30;95.40;;;19.47;57.91;99063.28;5000571;28;113278;-84
2023/08/10 00:15:30;;;;;;;;;;;19.30;95.30;;;19.46;57.67;99067.25;4987603;28;113165;-84
2023/08/10 00:17:59;;;;;;;;;;;19.20;95.20;;;19.46;57.58;99058.06;4991322;28;123908;-84
2023/08/10 00:20:25;;;;;;;;;;;19.20;95.10;;;19.45;57.38;99062.84;4977124;28;124550;-84
2023/08/10 00:22:53;;;;;;;;;;;19.20;95.00;;;19.43;57.11;99063.19;4980639;28;114356;-84
2023/08/10 00:25:22;;;;;;;;;;;19.20;95.00;;;19.41;57.19;99059.94;4987710;28;114609;-84
2023/08/10 00:27:48;;;;;;;;;;;19.20;94.90;;;19.40;57.08;99055.53;4996226;28;124077;-83
2023/08/10 00:30:17;;;;;;;;;;;19.20;94.80;;;19.39;56.99;99058.69;4982393;28;123717;-84
2023/08/10 00:32:45;;;;;;;;;;;19.20;94.70;;;19.39;56.72;99053.09;4982358;28;115312;-85
2023/08/10 00:35:21;;;;;;;;;;;19.20;94.70;;;19.39;56.95;99058.69;4977488;28;114081;-84
2023/08/10 00:37:49;;;;;;;;;;;19.10;94.70;;;19.39;57.03;99056.69;4982237;28;122325;-84
2023/08/10 00:40:18;;;;;;;;;;;19.10;94.80;;;19.38;57.09;99052.28;4958237;28;123028;-84
2023/08/10 00:42:44;;;;;;;;;;;19.10;94.80;;;19.36;57.20;99051.81;4982427;28;114366;-85
2023/08/10 00:45:11;;;;;;;;;;;19.10;94.80;;;19.35;56.79;99061.41;4979371;28;113505;-85
2023/08/10 00:47:41;;;;;;;;;;;19.10;94.80;;;19.32;56.74;99059.34;4985442;28;124293;-83
2023/08/10 00:50:09;;;;;;;;;;;19.00;94.60;;;19.28;56.71;99054.81;4986692;28;123722;-84
2023/08/10 00:52:36;;;;;;;;;;;19.10;94.50;;;19.24;56.64;99065.97;4989201;28;113493;-84
2023/08/10 00:55:06;;;;;;;;;;;19.00;94.40;;;19.23;56.51;99066.31;4979623;28;113738;-85
2023/08/10 00:57:32;;;;;;;;;;;19.00;94.40;;;19.17;56.62;99065.78;4981171;28;123831;-85
2023/08/10 00:59:59;;;;;;;;;;;18.90;94.30;;;19.11;56.46;99065.25;4961275;28;123836;-85
2023/08/10 01:02:25;;;;;;;;;;;18.90;94.30;;;19.09;56.66;99075.19;4978747;28;114107;-85
2023/08/10 01:04:56;;;;;;;;;;;18.80;94.30;;;19.05;56.78;99069.50;4994635;28;112671;-85
2023/08/10 01:07:34;;;;;;;;;;;18.90;94.40;;;19.02;56.63;99066.59;4976111;28;124223;-85
2023/08/10 01:10:31;;;;;;;;;;;18.80;94.30;;;18.96;56.70;99060.47;4973494;28;123661;-85
2023/08/10 01:13:09;;;;;;;;;;;18.80;94.40;;;18.95;56.75;99061.66;4973456;28;113770;-85
2023/08/10 01:15:38;;;;;;;;;;;18.70;94.40;;;18.93;56.81;99067.59;4981359;28;113745;-85
2023/08/10 01:18:25;;;;;;;;;;;18.70;94.40;;;18.90;56.62;99073.94;4965752;28;123725;-84
2023/08/10 01:20:56;;;;;;;;;;;18.70;94.40;;;18.87;56.83;99071.84;4975511;28;124554;-84
2023/08/10 01:23:32;;;;;;;;;;;18.40;94.30;;;18.85;57.11;99073.38;4985865;28;115112;-85
2023/08/10 01:26:06;;;;;;;;;;;18.60;94.40;;;18.85;57.14;99071.38;4979707;28;114824;-84
2023/08/10 01:28:33;;;;;;;;;;;18.60;94.50;;;18.86;56.99;99072.19;4991760;28;124004;-84
2023/08/10 01:31:00;;;;;;;;;;;18.60;94.50;;;18.85;57.05;99074.19;4988385;28;124000;-84
2023/08/10 01:33:38;;;;;;;;;;;18.60;94.50;;;18.87;56.99;99074.66;4987538;28;114657;-84
2023/08/10 01:36:06;;;;;;;;;;;18.60;94.60;;;18.88;57.13;99067.06;4977558;28;115036;-84
2023/08/10 01:38:32;;;;;;;;;;;18.60;94.60;;;18.86;57.20;99067.44;4968680;28;124070;-84
2023/08/10 01:40:58;;;;;;;;;;;18.60;94.70;;;18.85;57.23;99067.78;4983449;28;123737;-84
2023/08/10 01:43:24;;;;;;;;;;;18.50;94.60;;;18.84;57.14;99069.78;4997128;28;114355;-84
2023/08/10 01:46:00;;;;;;;;;;;18.60;94.70;;;18.83;57.46;99073.72;4990265;28;113687;-85
2023/08/10 01:48:42;;;;;;;;;;;18.60;94.80;;;18.80;57.52;99068.84;4976875;28;123146;-84
2023/08/10 01:51:10;;;;;;;;;;;18.60;94.80;;;18.79;57.44;99063.63;4988146;28;124139;-85
2023/08/10 01:53:37;;;;;;;;;;;18.50;94.80;;;18.79;57.56;99066.44;4966709;28;113412;-85
2023/08/10 01:56:06;;;;;;;;;;;18.50;94.80;;;18.79;57.73;99067.25;4970045;28;113945;-85
2023/08/10 01:58:42;;;;;;;;;;;18.50;94.90;;;18.78;57.90;99079.63;4980781;28;123986;-84
2023/08/10 02:01:09;;;;;;;;;;;18.50;95.00;;;18.77;58.03;99080.78;4975620;28;123011;-86
2023/08/10 02:03:35;;;;;;;;;;;18.50;95.10;;;18.78;58.19;99076.84;4996370;28;113708;-85
2023/08/10 02:06:02;;;;;;;;;;;18.50;95.10;;;18.76;58.23;99079.16;4983407;28;115993;-85
2023/08/10 02:08:28;;;;;;;;;;;18.50;95.20;;;18.74;58.53;99067.47;4974642;28;124071;-85
2023/08/10 02:10:55;;;;;;;;;;;18.50;95.30;;;18.72;58.44;99072.63;4992514;28;124131;-86
2023/08/10 02:13:21;;;;;;;;;;;18.50;95.30;;;18.71;58.54;99071.00;4978354;28;114369;-86
2023/08/10 02:15:47;;;;;;;;;;;18.40;95.40;;;18.70;58.68;99069.41;4982023;28;114479;-86
2023/08/10 02:18:14;;;;;;;;;;;18.40;95.40;;;18.68;58.59;99071.72;4994075;28;124081;-86
2023/08/10 02:20:42;;;;;;;;;;;18.40;95.40;;;18.69;58.66;99076.94;4984080;28;124214;-85
2023/08/10 02:23:10;;;;;;;;;;;18.40;95.80;;;18.68;58.67;99074.53;4981772;28;114327;-86
2023/08/10 02:25:44;;;;;;;;;;;18.40;95.50;;;18.68;58.47;99083.72;4988832;28;113726;-86
2023/08/10 02:28:12;;;;;;;;;;;18.40;95.50;;;18.66;58.73;99066.47;4994416;28;123318;-86
2023/08/10 02:30:42;;;;;;;;;;;18.40;95.50;;;18.65;58.72;99073.25;4989358;28;124019;-84
2023/08/10 02:33:10;;;;;;;;;;;18.40;95.60;;;18.63;58.53;99074.78;4991233;28;114276;-85
2023/08/10 02:35:37;;;;;;;;;;;18.40;95.60;;;18.62;58.92;99076.78;4971920;28;113736;-85
2023/08/10 02:38:05;;;;;;;;;;;18.30;95.60;;;18.62;58.72;99073.16;4987046;28;124181;-86
2023/08/10 02:40:31;;;;;;;;;;;18.30;95.60;;;18.60;58.94;99079.13;4961110;28;122954;-86
2023/08/10 02:42:58;;;;;;;;;;;18.30;95.60;;;18.60;59.03;99081.13;4989312;28;114457;-86
2023/08/10 02:45:24;;;;;;;;;;;18.30;95.70;;;18.58;59.03;99077.84;4999634;28;113888;-85
2023/08/10 02:47:54;;;;;;;;;;;18.30;95.70;;;18.57;59.30;99079.84;5002256;28;124052;-85
2023/08/10 02:50:20;;;;;;;;;;;18.30;95.80;;;18.49;59.50;99087.22;4990578;28;124063;-86
2023/08/10 02:52:47;;;;;;;;;;;18.20;96.00;;;18.40;59.62;99085.75;4987706;28;115158;-86
2023/08/10 02:55:13;;;;;;;;;;;18.20;95.90;;;18.33;59.74;99083.59;4991109;28;113797;-86
2023/08/10 02:57:42;;;;;;;;;;;18.10;95.90;;;18.27;59.93;99079.44;4984698;28;124490;-86
2023/08/10 03:00:12;;;;;;;;;;;18.10;96.00;;;18.23;59.96;99081.31;4982595;28;123839;-85
2023/08/10 03:02:43;;;;;;;;;;;18.10;96.00;;;18.19;60.09;99088.75;4985881;28;114753;-85
2023/08/10 03:05:09;;;;;;;;;;;18.00;96.00;;;18.18;60.10;99092.75;4973973;28;114911;-85
2023/08/10 03:07:36;;;;;;;;;;;18.00;96.10;;;18.20;60.15;99090.41;4999507;28;123729;-86
2023/08/10 03:10:07;;;;;;;;;;;18.00;96.10;;;18.20;60.18;99090.41;4990298;28;124145;-85
2023/08/10 03:12:34;;;;;;;;;;;18.00;96.20;;;18.21;60.37;99092.03;4998522;28;114434;-86
2023/08/10 03:15:01;;;;;;;;;;;17.90;96.20;;;18.20;60.45;99085.63;4991156;28;113700;-86
2023/08/10 03:17:28;;;;;;;;;;;17.90;96.30;;;18.19;60.41;99089.59;5002894;28;124878;-86
2023/08/10 03:19:58;;;;;;;;;;;18.00;96.40;;;18.20;60.50;99091.22;4983941;28;123925;-86
2023/08/10 03:22:27;;;;;;;;;;;17.90;96.40;;;18.19;60.33;99100.78;4987801;28;114605;-84
2023/08/10 03:24:54;;;;;;;;;;;17.90;96.50;;;18.19;60.51;99095.19;4988941;28;113991;-86
2023/08/10 03:27:23;;;;;;;;;;;17.90;96.50;;;18.18;60.71;99089.94;4995304;28;124299;-86
2023/08/10 03:29:49;;;;;;;;;;;17.90;96.60;;;18.12;60.76;99085.78;4988245;28;124639;-84
2023/08/10 03:32:15;;;;;;;;;;;17.90;96.70;;;18.05;60.79;99080.78;4986503;28;116634;-84
2023/08/10 03:34:41;;;;;;;;;;;17.80;96.60;;;18.00;60.92;99081.88;4983577;28;113696;-86
2023/08/10 03:37:11;;;;;;;;;;;17.80;96.60;;;17.97;61.07;99074.16;4974998;28;124213;-85
2023/08/10 03:39:37;;;;;;;;;;;17.70;96.70;;;17.94;61.13;99077.69;4974447;28;124216;-85
2023/08/10 03:42:06;;;;;;;;;;;17.70;96.70;;;17.93;61.26;99092.03;4982258;28;114406;-86
2023/08/10 03:44:35;;;;;;;;;;;17.70;96.70;;;17.92;61.21;99082.84;4989203;28;113942;-85
2023/08/10 03:47:01;;;;;;;;;;;17.70;96.80;;;17.93;61.34;99095.63;4987499;28;124217;-84
2023/08/10 03:49:27;;;;;;;;;;;17.80;96.90;;;17.95;61.23;99095.28;4989220;28;124002;-85
2023/08/10 03:51:54;;;;;;;;;;;17.70;97.20;;;17.97;61.34;99096.53;4986196;28;115390;-83
2023/08/10 03:54:23;;;;;;;;;;;17.70;96.90;;;17.97;61.38;99092.94;4984563;28;114881;-85
2023/08/10 03:56:49;;;;;;;;;;;17.70;97.00;;;17.96;61.30;99097.72;4984316;28;124298;-84
2023/08/10 03:59:18;;;;;;;;;;;17.70;97.00;;;17.96;61.26;99097.72;4976430;28;124249;-83
2023/08/10 04:01:47;;;;;;;;;;;17.70;97.00;;;17.96;61.32;99097.72;4981301;28;114731;-84
2023/08/10 04:04:13;;;;;;;;;;;17.70;97.00;;;17.96;61.40;99100.50;4970375;28;113835;-85
2023/08/10 04:06:40;;;;;;;;;;;17.70;97.00;;;17.93;61.34;99098.44;4990083;28;124577;-85
2023/08/10 04:09:06;;;;;;;;;;;17.70;97.00;;;17.90;61.57;99099.13;4974054;28;124249;-85
2023/08/10 04:11:38;;;;;;;;;;;17.70;97.10;;;17.87;61.56;99099.84;4971932;28;114683;-85
2023/08/10 04:14:05;;;;;;;;;;;17.60;97.00;;;17.84;61.68;99094.97;4978189;28;113675;-85
2023/08/10 04:16:37;;;;;;;;;;;17.60;97.10;;;17.78;61.66;99102.72;4976567;28;124376;-86
2023/08/10 04:19:04;;;;;;;;;;;17.60;97.10;;;17.72;61.71;99104.16;4983849;28;123805;-84
2023/08/10 04:21:30;;;;;;;;;;;17.50;97.10;;;17.67;61.86;99102.41;4970332;28;114475;-85
2023/08/10 04:24:02;;;;;;;;;;;17.50;97.10;;;17.66;61.88;99103.59;4987141;28;113821;-83
2023/08/10 04:26:29;;;;;;;;;;;17.50;97.20;;;17.64;61.78;99111.50;4974140;28;124964;-85
2023/08/10 04:28:55;;;;;;;;;;;17.40;97.20;;;17.64;61.82;99097.53;4971418;28;122895;-85
2023/08/10 04:31:24;;;;;;;;;;;17.40;97.20;;;17.69;61.86;99099.28;4998495;28;114422;-85
2023/08/10 04:33:50;;;;;;;;;;;17.40;97.30;;;17.74;61.70;99107.41;4986687;28;114021;-84
2023/08/10 04:36:17;;;;;;;;;;;17.40;97.30;;;17.76;61.78;99115.44;4988055;28;124883;-84
2023/08/10 04:38:49;;;;;;;;;;;17.40;97.30;;;17.74;61.97;99123.38;4976302;28;123926;-84
2023/08/10 04:41:15;;;;;;;;;;;17.40;97.40;;;17.70;61.81;99125.22;4992836;28;115599;-85
2023/08/10 04:43:41;;;;;;;;;;;17.40;97.40;;;17.69;61.93;99120.81;4994853;28;114611;-85
2023/08/10 04:46:17;;;;;;;;;;;17.40;97.50;;;17.67;62.13;99119.19;4985145;28;124169;-85
2023/08/10 04:48:43;;;;;;;;;;;17.40;97.50;;;17.62;62.19;99122.25;4979700;28;124046;-83
2023/08/10 04:51:12;;;;;;;;;;;17.40;97.50;;;17.59;62.54;99116.53;5002596;28;114405;-84
2023/08/10 04:53:38;;;;;;;;;;;17.30;97.50;;;17.56;62.47;99118.03;4987384;28;113521;-84
2023/08/10 04:56:05;;;;;;;;;;;17.30;97.60;;;17.54;62.62;99120.34;4989546;28;124364;-83
2023/08/10 04:58:31;;;;;;;;;;;17.30;97.60;;;17.53;62.72;99117.94;4989226;28;124429;-84
2023/08/10 05:01:02;;;;;;;;;;;17.30;97.70;;;17.51;62.81;99126.66;4984396;28;114572;-85
2023/08/10 05:03:28;;;;;;;;;;;17.30;97.80;;;17.51;63.26;99123.06;4980743;28;113943;-84
2023/08/10 05:06:02;;;;;;;;;;;17.30;97.80;;;17.51;62.81;99126.66;4973076;28;124145;-82
2023/08/10 05:08:28;;;;;;;;;;;17.30;97.80;;;17.50;62.86;99136.22;4971579;28;124454;-85
2023/08/10 05:10:54;;;;;;;;;;;17.30;97.90;;;17.53;63.04;99131.91;4978919;28;114309;-83
2023/08/10 05:13:21;;;;;;;;;;;17.30;97.90;;;17.56;63.10;99123.63;4977465;28;113666;-84
2023/08/10 05:15:56;;;;;;;;;;;17.30;98.10;;;17.59;63.14;99127.69;4987744;28;124879;-84
2023/08/10 05:18:31;;;;;;;;;;;17.30;98.10;;;17.62;63.11;99125.03;4971557;28;124008;-83
2023/08/10 05:21:03;;;;;;;;;;;17.30;98.10;;;17.67;63.07;99127.56;4974687;28;114123;-84
2023/08/10 05:23:29;;;;;;;;;;;17.30;98.10;;;17.71;63.08;99132.47;4994249;28;113722;-85
2023/08/10 05:25:56;;;;;;;;;;;17.40;98.20;;;17.76;63.07;99132.19;4993359;28;124102;-85
2023/08/10 05:28:23;;;;;;;;;;;17.40;98.20;;;17.78;62.95;99132.66;4995862;28;123684;-83
2023/08/10 05:30:51;;;;;;;;;;;17.40;98.20;;;17.83;62.96;99130.47;4989401;28;114851;-85
2023/08/10 05:33:17;;;;;;;;;;;17.50;98.30;;;17.90;62.71;99131.88;4974061;28;114850;-85
2023/08/10 05:35:44;;;;;;;;;;;17.50;98.30;;;17.97;62.78;99144.06;4980961;28;124791;-84
2023/08/10 05:38:10;;;;;;;;;;;17.50;98.30;;;18.04;62.56;99138.69;4975142;28;123623;-83
2023/08/10 05:40:39;;;;;;;;;;;17.60;98.30;;;18.10;62.66;99137.28;4984695;28;114140;-85
2023/08/10 05:43:06;;;;;;;;;;;17.70;98.30;;;18.16;62.45;99134.22;4992259;28;113563;-84
2023/08/10 05:45:35;;;;;;;;;;;17.70;98.20;;;18.20;62.23;99137.97;4979926;28;124203;-84
2023/08/10 05:48:11;;;;;;;;;;;17.70;98.20;;;18.22;62.06;99132.81;4986006;28;124885;-85
2023/08/10 05:50:41;;;;;;;;;;;17.80;98.10;;;18.24;62.02;99141.66;4989444;28;114630;-83
2023/08/10 05:53:07;;;;;;;;;;;17.80;98.00;;;18.25;61.84;99144.09;4983060;28;113765;-84
2023/08/10 05:55:34;;;;;;;;;;;17.80;98.00;;;18.31;61.79;99153.06;4986429;28;125409;-83
2023/08/10 05:58:09;;;;;;;;;;;17.90;98.10;;;18.40;61.68;99156.50;4984966;28;123780;-85
2023/08/10 06:00:41;;;;;;;;;;;17.90;98.00;;;18.48;61.66;99163.13;4989156;28;113765;-82
2023/08/10 06:03:08;;;;;;;;;;;18.00;98.00;;;18.51;61.54;99160.44;4974384;28;113918;-84
2023/08/10 06:05:34;;;;;;;;;;;18.00;98.00;;;18.55;61.52;99158.53;4976244;28;123298;-83
2023/08/10 06:08:08;;;;;;;;;;;18.10;97.90;;;18.54;61.46;99162.53;4980502;28;123840;-82
2023/08/10 06:10:34;;;;;;;;;;;18.10;97.90;;;18.55;61.45;99163.34;4984936;28;114622;-84
2023/08/10 06:13:03;;;;;;;;;;;18.10;97.80;;;18.53;61.27;99160.88;4984449;28;112789;-84
2023/08/10 06:15:32;;;;;;;;;;;18.10;97.80;;;18.53;61.47;99160.88;4989862;28;124653;-83
2023/08/10 06:17:59;;;;;;;;;;;18.10;97.80;;;18.53;61.56;99163.69;4978686;28;124134;-82
2023/08/10 06:20:28;;;;;;;;;;;18.10;97.80;;;18.53;61.43;99152.50;4985851;28;114366;-83
2023/08/10 06:22:54;;;;;;;;;;;18.20;97.90;;;18.55;61.77;99163.34;4976803;28;114991;-83
2023/08/10 06:25:24;;;;;;;;;;;18.20;97.90;;;18.61;61.68;99169.50;4980006;28;124568;-82
2023/08/10 06:27:53;;;;;;;;;;;18.20;97.90;;;18.66;61.55;99174.84;4986521;28;124148;-82
2023/08/10 06:30:22;;;;;;;;;;;18.30;97.90;;;18.71;61.50;99175.38;4982121;28;114834;-82
2023/08/10 06:32:52;;;;;;;;;;;18.30;97.90;;;18.75;61.36;99181.94;4979588;28;114611;-82
2023/08/10 06:35:18;;;;;;;;;;;18.30;97.90;;;18.80;61.39;99180.84;4977047;28;124981;-83
2023/08/10 06:37:45;;;;;;;;;;;18.40;98.00;;;18.83;61.47;99174.53;4981784;28;123950;-82
2023/08/10 06:40:11;;;;;;;;;;;18.40;97.90;;;18.86;61.36;99173.84;4965184;28;114065;-82
2023/08/10 06:42:41;;;;;;;;;;;18.50;97.90;;;18.88;61.35;99179.88;4983320;28;113667;-83
2023/08/10 06:45:08;;;;;;;;;;;18.50;97.90;;;18.89;61.31;99178.72;4986020;28;124896;-82
2023/08/10 06:47:35;;;;;;;;;;;18.50;97.80;;;18.92;61.22;99172.38;4977153;28;123924;-83
2023/08/10 06:50:05;;;;;;;;;;;18.50;97.80;;;18.95;61.10;99173.66;4986806;28;116402;-79
2023/08/10 06:52:31;;;;;;;;;;;18.50;97.80;;;18.96;61.35;99184.47;4984517;28;113748;-82
2023/08/10 06:54:57;;;;;;;;;;;18.50;97.80;;;18.99;61.15;99188.56;4981972;28;124466;-82
2023/08/10 06:57:27;;;;;;;;;;;18.50;97.80;;;19.04;61.11;99187.47;4993642;28;124404;-83
2023/08/10 06:59:55;;;;;;;;;;;18.60;97.90;;;19.09;61.29;99192.81;4970584;28;114534;-82
2023/08/10 07:02:21;;;;;;;;;;;18.60;97.90;;;19.13;61.45;99196.53;4993282;28;113437;-83
2023/08/10 07:04:51;;;;;;;;;;;18.70;97.90;;;19.17;61.14;99192.63;4977286;28;124162;-83
2023/08/10 07:07:17;;;;;;;;;;;18.70;97.90;;;19.21;61.15;99192.75;4970366;28;124026;-82
2023/08/10 07:09:46;;;;;;;;;;;18.70;97.80;;;19.23;61.09;99193.19;4968003;28;115494;-86
2023/08/10 07:12:17;;;;;;;;;;;18.80;97.90;;;19.24;61.08;99197.63;4975927;28;113758;-82
2023/08/10 07:14:43;;;;;;;;;;;18.80;97.90;;;19.28;61.07;99197.72;4990704;28;123626;-83
2023/08/10 07:17:09;;;;;;;;;;;18.80;97.80;;;19.33;60.74;99197.44;4979014;28;124527;-83
2023/08/10 07:19:43;;;;;;;;;;;18.90;97.90;;;19.37;60.82;99195.53;4993677;28;114525;-83
2023/08/10 07:22:09;;;;;;;;;;;18.90;97.80;;;19.41;60.64;99200.06;4986344;28;113728;-85
2023/08/10 07:24:44;;;;;;;;;;;18.90;97.80;;;19.44;60.60;99192.91;4987669;28;123766;-85
2023/08/10 07:27:10;;;;;;;;;;;19.00;97.80;;;19.49;60.98;99191.84;4989080;28;124100;-81
2023/08/10 07:29:38;;;;;;;;;;;19.00;97.80;;;19.51;60.81;99186.69;4980095;28;114503;-84
2023/08/10 07:32:06;;;;;;;;;;;19.00;97.80;;;19.57;60.80;99183.22;4978066;28;113880;-83
2023/08/10 07:34:34;;;;;;;;;;;19.10;97.80;;;19.64;60.68;99180.63;4981403;28;124608;-83
2023/08/10 07:37:04;;;;;;;;;;;19.20;97.80;;;19.70;60.58;99189.59;4970964;28;124639;-82
2023/08/10 07:39:30;;;;;;;;;;;19.20;97.70;;;19.74;60.17;99189.66;4970454;28;114403;-80
2023/08/10 07:41:56;;;;;;;;;;;19.20;97.70;;;19.79;60.36;99190.19;4983875;28;113752;-81
2023/08/10 07:44:23;;;;;;;;;;;19.30;97.70;;;19.85;60.09;99190.72;4978552;28;123788;-82
2023/08/10 07:46:54;;;;;;;;;;;19.30;97.60;;;19.92;59.89;99204.13;4970632;28;123787;-79
2023/08/10 07:49:20;;;;;;;;;;;19.40;97.60;;;19.98;59.69;99191.41;4987635;28;114452;-80
2023/08/10 07:51:47;;;;;;;;;;;19.50;97.60;;;19.99;59.92;99199.47;4982220;28;113694;-80
2023/08/10 07:54:15;;;;;;;;;;;19.50;97.50;;;20.02;59.77;99197.94;4988246;28;123803;-82
2023/08/10 07:56:42;;;;;;;;;;;19.50;97.50;;;20.07;59.48;99208.88;4994443;28;123878;-80
2023/08/10 07:59:08;;;;;;;;;;;19.60;97.40;;;20.13;59.65;99207.41;4996868;28;115626;-82
2023/08/10 08:01:38;;;;;;;;;;;19.60;97.40;;;20.19;59.56;99202.31;4984646;28;113601;-80
2023/08/10 08:04:05;;;;;;;;;;;19.70;97.30;;;20.22;59.19;99193.97;4995276;28;123953;-80
2023/08/10 08:06:35;;;;;;;;;;;19.70;97.30;;;20.26;59.08;99196.88;4985395;28;123985;-82
2023/08/10 08:09:07;;;;;;;;;;;19.80;97.30;;;20.27;59.30;99199.28;4983455;28;114032;-82
2023/08/10 08:11:38;;;;;;;;;;;19.80;97.20;;;20.27;59.30;99198.47;4986955;28;114053;-82
2023/08/10 08:14:05;;;;;;;;;;;19.80;97.10;;;20.29;59.22;99196.13;4994471;28;124553;-82
2023/08/10 08:16:31;;;;;;;;;;;19.80;97.20;;;20.30;59.12;99204.16;4996701;28;123820;-82
2023/08/10 08:18:58;;;;;;;;;;;19.80;97.20;;;20.33;59.39;99199.81;4991934;28;113991;-81
2023/08/10 08:21:26;;;;;;;;;;;19.80;97.20;;;20.37;59.13;99199.91;4985302;28;114133;-77
2023/08/10 08:23:56;;;;;;;;;;;19.80;97.20;;;20.40;59.35;99193.56;4979171;28;124197;-82
2023/08/10 08:26:23;;;;;;;;;;;19.90;97.20;;;20.45;59.33;99201.69;4979424;28;123676;-81
2023/08/10 08:28:52;;;;;;;;;;;20.00;97.20;;;20.51;59.01;99200.19;4990708;28;114485;-81
2023/08/10 08:31:19;;;;;;;;;;;20.00;97.20;;;20.60;59.15;99198.00;4995771;28;113307;-81
2023/08/10 08:33:45;;;;;;;;;;;20.10;97.20;;;20.71;58.74;99199.03;4974497;28;123938;-81
2023/08/10 08:36:14;;;;;;;;;;;20.20;97.20;;;20.84;58.66;99191.25;4988515;28;123921;-81
2023/08/10 08:38:43;;;;;;;;;;;20.30;97.20;;;20.92;58.64;99192.19;4978374;28;114469;-81
2023/08/10 08:41:10;;;;;;;;;;;20.40;97.10;;;20.95;58.19;99185.84;4991125;28;112722;-91
2023/08/10 08:43:43;;;;;;;;;;;20.50;97.00;;;21.04;58.62;99192.03;4969729;28;122496;-81
2023/08/10 08:46:11;;;;;;;;;;;20.50;97.00;;;21.14;58.19;99190.59;4981276;28;124177;-83
2023/08/10 08:48:37;;;;;;;;;;;20.60;97.00;;;21.24;58.33;99189.19;4981358;28;115707;-81
2023/08/10 08:51:07;;;;;;;;;;;20.70;97.00;;;21.35;57.63;99181.72;4981820;28;114649;-83
2023/08/10 08:53:34;;;;;;;;;;;20.80;97.00;;;21.43;58.03;99189.13;4984062;28;124346;-82
2023/08/10 08:56:01;;;;;;;;;;;20.90;96.90;;;21.51;57.84;99179.63;4968531;28;124156;-81
2023/08/10 08:58:31;;;;;;;;;;;20.90;96.80;;;21.61;57.51;99183.81;4973042;28;114216;-84
2023/08/10 09:00:58;;;;;;;;;;;21.00;96.70;;;21.67;57.34;99181.50;4978624;28;113908;-81
2023/08/10 09:03:33;;;;;;;;;;;21.10;96.60;;;21.70;57.02;99181.53;4984430;28;124464;-79
2023/08/10 09:06:00;;;;;;;;;;;21.10;96.40;;;21.68;56.80;99183.09;4978474;28;123493;-80
2023/08/10 09:08:27;;;;;;;;;;;21.10;96.30;;;21.68;56.88;99178.31;4968221;28;114967;-81
2023/08/10 09:10:57;;;;;;;;;;;21.10;96.30;;;21.73;56.93;99177.16;4981494;28;113789;-82
2023/08/10 09:13:23;;;;;;;;;;;21.20;96.30;;;21.79;56.83;99168.03;4988227;28;123667;-83
2023/08/10 09:16:10;;;;;;;;;;;21.30;96.30;;;21.83;56.28;99165.25;4968561;28;124048;-79
2023/08/10 09:18:45;;;;;;;;;;;21.30;96.00;;;21.88;56.35;99164.13;4975794;28;114620;-80
2023/08/10 09:21:14;;;;;;;;;;;21.30;96.00;;;21.93;56.20;99156.16;4981491;28;113823;-80
2023/08/10 09:23:54;;;;;;;;;;;21.40;96.00;;;21.99;55.88;99156.66;4973909;28;124196;-81
2023/08/10 09:26:22;;;;;;;;;;;21.50;96.00;;;22.05;55.72;99147.47;4977682;28;123429;-82
2023/08/10 09:28:58;;;;;;;;;;;21.50;95.80;;;22.08;55.86;99145.09;4988884;28;114923;-79
2023/08/10 09:31:36;;;;;;;;;;;21.60;95.70;;;22.11;55.99;99141.53;4994207;28;113156;-82
2023/08/10 09:34:13;;;;;;;;;;;21.60;95.70;;;22.16;55.81;99144.00;4992376;28;123850;-81
2023/08/10 09:36:54;;;;;;;;;;;21.60;95.70;;;22.22;55.54;99139.72;4971665;28;124078;-81
2023/08/10 09:39:20;;;;;;;;;;;21.70;95.70;;;22.29;54.87;99142.59;4975977;28;115089;-80
2023/08/10 09:41:59;;;;;;;;;;;21.60;95.30;;;22.30;54.73;99140.59;4981701;28;114426;-80
2023/08/10 09:44:25;;;;;;;;;;;21.80;95.20;;;22.30;54.88;99138.59;4966786;28;123388;-80
2023/08/10 09:46:56;;;;;;;;;;;21.80;95.20;;;22.35;54.89;99143.06;4983316;28;123919;-81
2023/08/10 09:49:23;;;;;;;;;;;21.90;95.30;;;22.41;54.91;99133.91;4979901;28;113844;-79
2023/08/10 09:51:49;;;;;;;;;;;21.90;95.20;;;22.46;54.70;99133.56;4974856;28;113679;-80
2023/08/10 09:54:21;;;;;;;;;;;22.00;95.20;;;22.54;54.39;99136.44;4956733;28;123263;-80
2023/08/10 09:56:50;;;;;;;;;;;22.00;95.10;;;22.62;54.65;99138.16;4964654;28;123023;-79
2023/08/10 09:59:19;;;;;;;;;;;22.10;95.00;;;22.70;54.30;99125.75;4969154;28;114774;-79
2023/08/10 10:01:45;;;;;;;;;;;22.20;94.90;;;22.74;54.05;99135.09;4983015;28;113607;-79
2023/08/10 10:04:12;;;;;;;;;;;22.20;94.70;;;22.80;54.07;99129.91;4962791;28;123660;-79
2023/08/10 10:06:45;;;;;;;;;;;22.30;94.70;;;22.86;53.85;99122.72;4975730;28;122867;-80
2023/08/10 10:09:14;;;;;;;;;;;22.30;94.60;;;22.92;53.21;99115.56;4982789;28;113435;-80
2023/08/10 10:11:44;;;;;;;;;;;22.40;94.40;;;22.98;53.08;99113.22;4971351;28;113484;-81
2023/08/10 10:14:10;;;;;;;;;;;21.40;93.80;;;23.01;52.91;99116.06;4995351;28;125028;-78
2023/08/10 10:16:37;;;;;;;;;;;22.50;94.20;;;23.06;52.90;99123.34;4975858;28;124566;-79
2023/08/10 10:19:06;;;;;;;;;;;22.50;94.10;;;23.11;52.06;99117.38;4974818;28;114235;-79
2023/08/10 10:21:35;;;;;;;;;;;22.60;93.80;;;23.13;52.34;99107.31;4980753;28;113110;-79
2023/08/10 10:24:03;;;;;;;;;;;22.60;93.80;;;23.18;52.46;99106.13;4972666;28;125089;-80
2023/08/10 10:26:30;;;;;;;;;;;22.70;93.90;;;23.24;51.95;99104.59;4984807;28;123394;-80
2023/08/10 10:29:15;;;;;;;;;;;22.70;93.60;;;23.26;51.75;99104.19;4986954;28;115398;-79
2023/08/10 10:31:44;;;;;;;;;;;22.80;93.40;;;23.31;51.62;99101.00;4972464;28;114469;-79
2023/08/10 10:34:13;;;;;;;;;;;22.80;93.30;;;23.36;51.34;99103.47;4989026;28;124208;-79
2023/08/10 10:36:46;;;;;;;;;;;22.90;93.20;;;23.37;50.88;99097.44;4995494;28;123882;-78
2023/08/10 10:39:23;;;;;;;;;;;22.90;92.80;;;23.44;50.90;99098.69;4994158;28;113861;-79
2023/08/10 10:41:50;;;;;;;;;;;23.00;93.00;;;23.51;50.65;99081.84;4974062;28;113750;-79
2023/08/10 10:44:20;;;;;;;;;;;23.00;92.80;;;23.56;49.91;99089.91;4980606;28;123429;-79
2023/08/10 10:46:46;;;;;;;;;;;23.10;92.30;;;23.58;49.55;99082.66;4983800;28;123934;-78
2023/08/10 10:49:20;;;;;;;;;;;23.10;92.00;;;23.65;49.06;99078.28;5002572;28;114111;-78
2023/08/10 10:51:59;;;;;;;;;;;23.20;91.80;;;23.71;49.15;99077.53;4993619;28;114019;-79
2023/08/10 10:54:27;;;;;;;;;;;23.20;91.80;;;23.79;48.69;99073.56;4978492;28;124362;-77
2023/08/10 10:56:54;;;;;;;;;;;23.30;91.60;;;23.85;48.86;99053.41;4985509;28;123401;-76
2023/08/10 10:59:24;;;;;;;;;;;23.40;91.40;;;23.91;48.59;99063.94;4970814;28;113942;-79
2023/08/10 11:01:57;;;;;;;;;;;23.40;91.40;;;23.99;48.16;99059.13;4980177;28;113866;-80
2023/08/10 11:04:24;;;;;;;;;;;23.50;91.10;;;24.04;47.65;99061.56;4979161;28;124170;-80
2023/08/10 11:06:59;;;;;;;;;;;23.60;90.80;;;24.09;47.48;99068.84;4988041;28;123145;-79
2023/08/10 11:09:25;;;;;;;;;;;23.60;90.80;;;24.15;47.58;99068.09;4995728;28;113936;-79
2023/08/10 11:11:55;;;;;;;;;;;23.70;90.80;;;24.25;47.61;99060.84;4988483;28;113790;-80
2023/08/10 11:14:26;;;;;;;;;;;23.70;90.80;;;24.33;47.25;99058.84;4989877;28;125476;-80
2023/08/10 11:16:56;;;;;;;;;;;23.80;90.50;;;24.39;46.72;99054.41;4992703;28;123864;-79